createdAt,value
2019-02-19T00:02:48.366Z,8.5
2019-02-19T00:12:48.491Z,8.4
2019-02-19T00:22:47.698Z,8.4
2019-02-19T00:32:46.900Z,8.3
2019-02-19T00:42:46.106Z,8.3
2019-02-19T00:52:45.311Z,8.2
2019-02-19T01:02:44.515Z,8.2
2019-02-19T01:12:43.722Z,8.1
2019-02-19T01:22:42.930Z,8.1
2019-02-19T01:32:42.133Z,7.9
2019-02-19T01:42:41.336Z,7.9
2019-02-19T01:52:40.542Z,7.8
2019-02-19T02:02:39.747Z,7.8
2019-02-19T02:12:38.953Z,7.8
2019-02-19T02:22:38.155Z,7.8
2019-02-19T02:32:37.359Z,7.8
2019-02-19T02:42:36.562Z,7.8
2019-02-19T02:52:35.768Z,7.7
2019-02-19T03:02:34.970Z,7.6
2019-02-19T03:12:34.180Z,7.5
2019-02-19T03:22:33.378Z,7.4
2019-02-19T03:32:32.583Z,7.5
2019-02-19T03:42:31.788Z,7.4
2019-02-19T03:52:30.992Z,7.4
2019-02-19T04:02:30.195Z,7.4
2019-02-19T04:12:29.428Z,7.3
2019-02-19T04:22:28.600Z,7.3
2019-02-19T04:32:27.802Z,7.2
2019-02-19T04:50:05.940Z,7.2
2019-02-19T05:00:05.143Z,7.2
2019-02-19T05:10:04.349Z,6.8
2019-02-19T05:20:03.556Z,4.8
2019-02-19T05:30:02.778Z,4.4
2019-02-19T05:40:01.975Z,4.1
2019-02-19T05:50:01.234Z,4.2
2019-02-19T06:00:00.579Z,4.6
2019-02-19T06:09:59.813Z,5.6
2019-02-19T06:19:59.105Z,7.1
2019-02-19T06:29:58.399Z,8.4
2019-02-19T06:39:57.688Z,9.9
2019-02-19T06:49:56.889Z,11.8
2019-02-19T06:59:56.096Z,13.9
2019-02-19T07:09:55.299Z,16.3
2019-02-19T07:19:54.517Z,18.4
2019-02-19T07:29:53.709Z,19.1
2019-02-19T07:39:52.917Z,19.8
2019-02-19T07:49:52.120Z,20.4
2019-02-19T07:59:51.325Z,22.8
2019-02-19T08:09:50.532Z,23.7
2019-02-19T08:19:49.737Z,25
2019-02-19T08:29:48.944Z,25
2019-02-19T08:39:46.983Z,26.6
2019-02-19T08:49:46.188Z,26.4
2019-02-19T08:59:45.393Z,28.4
2019-02-19T09:09:44.597Z,27.4
2019-02-19T09:19:43.809Z,27.7
2019-02-19T09:29:43.016Z,28.2
2019-02-19T09:39:42.256Z,28
2019-02-19T09:49:41.551Z,27.3
2019-02-19T09:59:40.831Z,25.9
2019-02-19T10:09:40.126Z,26.9
2019-02-19T10:19:39.412Z,24.6
2019-02-19T10:29:38.702Z,25.2
2019-02-19T10:39:37.931Z,24.4
2019-02-19T10:49:37.114Z,24.6
2019-02-19T10:59:36.322Z,23.3
2019-02-19T11:09:35.530Z,22.5
2019-02-19T11:19:34.742Z,21.8
2019-02-19T11:29:33.949Z,21.3
2019-02-19T11:39:33.176Z,20
2019-02-19T11:49:32.367Z,19.4
2019-02-19T11:59:31.577Z,18.4
2019-02-19T12:09:30.783Z,16.7
2019-02-19T12:19:29.989Z,16.3
2019-02-19T12:29:29.197Z,16
2019-02-19T12:39:28.402Z,15.9
2019-02-19T12:49:27.606Z,16
2019-02-19T12:59:26.810Z,15.8
2019-02-19T13:09:26.018Z,15.4
2019-02-19T13:19:25.224Z,15.4
2019-02-19T13:29:24.427Z,15.3
2019-02-19T13:39:23.630Z,15.3
2019-02-19T13:49:22.834Z,15.3
2019-02-19T13:59:22.044Z,15.3
2019-02-19T14:09:21.290Z,15.1
2019-02-19T14:19:21.460Z,14.9
2019-02-19T14:29:19.649Z,14.8
2019-02-19T14:39:18.851Z,14.7
2019-02-19T14:49:18.105Z,14.5
2019-02-19T14:59:17.262Z,14.4
2019-02-19T15:09:16.464Z,14.1
2019-02-19T15:19:19.673Z,13.9
2019-02-19T15:29:14.922Z,13.5
2019-02-19T15:39:14.073Z,13.2
2019-02-19T15:49:13.284Z,12.9
2019-02-19T15:59:12.480Z,12.6
2019-02-19T16:09:11.684Z,12.1
2019-02-19T16:19:10.888Z,12.4
2019-02-19T16:29:10.095Z,12.5
2019-02-19T16:39:09.306Z,12.5
2019-02-19T16:49:08.567Z,12.4
2019-02-19T16:59:07.939Z,12.2
2019-02-19T17:09:06.936Z,12.1
2019-02-19T17:19:06.144Z,12
2019-02-19T17:29:05.359Z,11.9
2019-02-19T17:39:04.634Z,11.9
2019-02-19T17:49:03.818Z,11.9
2019-02-19T17:59:03.054Z,11.8
2019-02-19T18:09:02.184Z,11.8
2019-02-19T18:19:01.419Z,11.8
2019-02-19T18:29:00.606Z,11.6
2019-02-19T18:38:59.837Z,11.6
2019-02-19T18:48:59.022Z,11.5
2019-02-19T18:58:58.282Z,11.4
2019-02-19T19:08:57.440Z,11.3
2019-02-19T19:18:56.650Z,11.2
2019-02-19T19:28:55.860Z,11.1
2019-02-19T19:38:55.070Z,11
2019-02-19T19:48:54.280Z,10.9
2019-02-19T19:58:53.521Z,10.8
2019-02-19T20:08:52.704Z,10.7
2019-02-19T20:18:51.910Z,10.6
2019-02-19T20:35:00.043Z,10.6
2019-02-19T20:44:59.260Z,10.4
2019-02-19T20:54:58.465Z,10.4
2019-02-19T21:09:54.610Z,10.3
2019-02-19T21:19:53.854Z,10.1
2019-02-19T21:29:53.081Z,10
2019-02-19T21:39:52.290Z,9.9
2019-02-19T21:49:51.448Z,9.8
2019-02-19T21:59:50.657Z,9.8
2019-02-19T22:09:49.918Z,9.8
2019-02-19T22:19:49.210Z,9.8
2019-02-19T22:29:48.497Z,9.8
2019-02-19T22:39:47.837Z,9.7
2019-02-19T22:49:47.074Z,9.6
2019-02-19T22:59:46.367Z,9.4
2019-02-19T23:09:45.568Z,9.4
2019-02-19T23:19:44.774Z,9.3
2019-02-19T23:29:43.980Z,9.3
2019-02-19T23:39:43.886Z,9.3
2019-02-19T23:49:42.391Z,9.1
2019-02-19T23:59:41.649Z,8.9
